Rice, TX

3:07 PM CDT on September 17, 2014 (GMT -0500)
Athens | Change Station
CLOSE
Current Station
Airport
Location: Athens,
Elevation: 443 ft
Nearby Weather Stations

Elev 443 ft 32.16 °N, 95.83 °W | Updated 12 minutes ago

Partly Cloudy
Partly Cloudy
88 °F
Feels Like 93 °F
N
6
Wind Variable Wind from SSE

Today
High -- | Low -- °F
--% Chance of Precip.
Yesterday
High -- | Low -- °F
Precip. -- in
7:10 AM 7:28 PM
Waning Crescent, 33% visible
Pressure 29.91 in
Visibility 10.0 miles
Clouds Scattered Clouds 3600 ft
Heat Index 93 °F
Dew Point 70 °F
Humidity 55%
Rainfall 0.00 in
Snow Depth Not available.
UV 6 out of 12
Pollen 10.60 out of 12
Air Quality Not available.
Flu Activity Not available.
METAR KF44 171955Z AUTO 16005KT 10SM SCT036 31/21 A2991 RMK AO2

More Conditions Fewer Conditions

Pressure 29.91 in
Visibility 10.0 miles
Clouds Scattered Clouds 3600 ft
Heat Index 93 °F
Dew Point 70 °F
Humidity 55%
Rainfall 0.00 in
Snow Depth Not available.
UV 6 out of 12
Pollen 10.60 out of 12
Air Quality Not available.
Flu Activity Not available.
METAR KF44 171955Z AUTO 16005KT 10SM SCT036 31/21 A2991 RMK AO2

More Conditions Fewer Conditions

Nowcast | as of 3:02 PM CDT on September 17, 2014

As of 3 PM...scattered showers and thunderstorms were located across North Texas...with most activity along and north of Interstate 20. Through mid afternoon...isolated showers and thunderstorms will remain possible for all of north and central Texas. Rainfall amounts should remain light...with rain totals generally less than one tenth of an inch across most locations. However...locally higher amounts are possible for any area that encounters a slow moving thunderstorm. Otherwise...skies are expected to remain partly to mostly cloudy across most of north and central Texas...and afternoon highs are expected to climb into the low to mid 90s.

×

10-Day Weather Forecast

Almanac

Astronomy

Sep. 17, 2014 Rise Set
Actual Time 7:10 AM CDT 7:28 PM CDT
Civil Twilight 6:46 AM CDT 7:53 PM CDT
Nautical Twilight 6:17 AM CDT 8:22 PM CDT
Astronomical Twilight 5:48 AM CDT 8:51 PM CDT
Moon 1:26 AM CDT 3:25 PM CDT
Length of Visible Light 13h 07m
Length of Day
12h 18m
Tomorrow will be 1m 58s shorter.
Waning Crescent, 33% of the Moon is Illuminated
Today
Waning Crescent
Sep 24
New
Oct 1
First Quarter
Oct 8
Full
Oct 15
Last Quarter

Today's Extremes

State Highs State Lows

Community

WunderPhotos

Upload Photos

1,754,154 photos uploaded!

Nearby

Snow Depth

Station Depth Elevation
No new snow has been reported.

Earthquake Activity

City Distance Mag. Time & Date
No recent earthquake activity has been reported nearby.
Minimum magnitude displayed is 2.5.

Coastal Water Temperatures

Place Temperature
No Stations Reporting

Nearby Weather Stations